sensor_id;sensor_type;location;lat;lon;timestamp;pressure;altitude;pressure_sealevel;temperature;humidity
63691;BME280;49837;57.280;27.070;2023-01-31T00:00:53;97277.97;;;0.09;100.0
63691;BME280;49837;57.280;27.070;2023-01-31T00:01:54;97279.61;;;0.12;100.0
63691;BME280;49837;57.280;27.070;2023-01-31T00:02:54;97280.37;;;0.09;100.0
63691;BME280;49837;57.280;27.070;2023-01-31T00:03:56;97278.73;;;0.06;100.0
63691;BME280;49837;57.280;27.070;2023-01-31T00:04:55;97285.31;;;0.11;100.0
63691;BME280;49837;57.280;27.070;2023-01-31T00:05:55;97283.81;;;0.08;100.0
63691;BME280;49837;57.280;27.070;2023-01-31T00:06:55;97280.14;;;0.1;100.0
63691;BME280;49837;57.280;27.070;2023-01-31T00:07:56;97282.49;;;0.13;100.0
63691;BME280;49837;57.280;27.070;2023-01-31T00:08:57;97279.02;;;0.12;100.0
63691;BME280;49837;57.280;27.070;2023-01-31T00:09:56;97284.99;;;0.05;100.0
63691;BME280;49837;57.280;27.070;2023-01-31T00:10:58;97283.48;;;0.09;100.0
63691;BME280;49837;57.280;27.070;2023-01-31T00:11:57;97286.13;;;0.13;100.0
63691;BME280;49837;57.280;27.070;2023-01-31T00:12:58;97283.41;;;0.13;100.0
63691;BME280;49837;57.280;27.070;2023-01-31T00:13:58;97283.45;;;0.09;100.0
63691;BME280;49837;57.280;27.070;2023-01-31T00:14:58;97284.02;;;0.03;100.0
63691;BME280;49837;57.280;27.070;2023-01-31T00:15:58;97286.67;;;0.04;100.0
63691;BME280;49837;57.280;27.070;2023-01-31T00:16:59;97288.34;;;0.08;100.0
63691;BME280;49837;57.280;27.070;2023-01-31T00:17:59;97287.31;;;0.11;100.0
63691;BME280;49837;57.280;27.070;2023-01-31T00:18:59;97286.66;;;0.12;100.0
63691;BME280;49837;57.280;27.070;2023-01-31T00:20:00;97285.28;;;0.11;100.0
63691;BME280;49837;57.280;27.070;2023-01-31T00:22:04;97287.9;;;0.16;100.0
63691;BME280;49837;57.280;27.070;2023-01-31T00:23:04;97289.52;;;0.12;100.0
63691;BME280;49837;57.280;27.070;2023-01-31T00:24:05;97287.94;;;0.13;100.0
63691;BME280;49837;57.280;27.070;2023-01-31T00:25:06;97287.34;;;0.13;100.0
63691;BME280;49837;57.280;27.070;2023-01-31T00:26:14;97289.77;;;0.12;100.0
63691;BME280;49837;57.280;27.070;2023-01-31T00:27:07;97289.68;;;0.12;100.0
63691;BME280;49837;57.280;27.070;2023-01-31T00:28:08;97283.94;;;0.09;100.0
63691;BME280;49837;57.280;27.070;2023-01-31T00:29:08;97286.05;;;0.06;100.0
63691;BME280;49837;57.280;27.070;2023-01-31T00:30:09;97285.81;;;0.08;100.0
63691;BME280;49837;57.280;27.070;2023-01-31T00:31:10;97284.59;;;0.08;100.0
63691;BME280;49837;57.280;27.070;2023-01-31T00:32:09;97280.21;;;0.04;100.0
63691;BME280;49837;57.280;27.070;2023-01-31T00:33:09;97280.6;;;0.04;100.0
63691;BME280;49837;57.280;27.070;2023-01-31T00:34:10;97282.86;;;0.07;100.0
63691;BME280;49837;57.280;27.070;2023-01-31T00:35:10;97277.78;;;0.07;100.0
63691;BME280;49837;57.280;27.070;2023-01-31T00:36:13;97278.1;;;0.11;100.0
63691;BME280;49837;57.280;27.070;2023-01-31T00:37:12;97278.59;;;0.08;100.0
63691;BME280;49837;57.280;27.070;2023-01-31T00:38:12;97278.01;;;0.11;100.0
63691;BME280;49837;57.280;27.070;2023-01-31T00:39:12;97277.98;;;0.07;100.0
63691;BME280;49837;57.280;27.070;2023-01-31T00:40:13;97277.12;;;0.1;100.0
63691;BME280;49837;57.280;27.070;2023-01-31T00:41:13;97274.77;;;0.08;100.0
63691;BME280;49837;57.280;27.070;2023-01-31T00:42:13;97273.41;;;0.11;100.0
63691;BME280;49837;57.280;27.070;2023-01-31T00:43:14;97274.69;;;0.12;100.0
63691;BME280;49837;57.280;27.070;2023-01-31T00:44:14;97276.96;;;0.07;100.0
63691;BME280;49837;57.280;27.070;2023-01-31T00:45:14;97278.86;;;0.09;100.0
63691;BME280;49837;57.280;27.070;2023-01-31T00:46:15;97281.02;;;0.09;100.0
63691;BME280;49837;57.280;27.070;2023-01-31T00:47:15;97277.16;;;0.07;100.0
63691;BME280;49837;57.280;27.070;2023-01-31T00:48:15;97282.5;;;0.09;100.0
63691;BME280;49837;57.280;27.070;2023-01-31T00:49:15;97281.75;;;0.07;100.0
63691;BME280;49837;57.280;27.070;2023-01-31T00:50:16;97280.41;;;0.08;100.0
63691;BME280;49837;57.280;27.070;2023-01-31T00:51:17;97277.45;;;0.08;100.0
63691;BME280;49837;57.280;27.070;2023-01-31T00:52:17;97279.0;;;0.01;100.0
63691;BME280;49837;57.280;27.070;2023-01-31T00:53:17;97280.15;;;0.0;100.0
63691;BME280;49837;57.280;27.070;2023-01-31T00:54:18;97278.55;;;-0.03;100.0
63691;BME280;49837;57.280;27.070;2023-01-31T00:55:18;97280.73;;;0.0;100.0
63691;BME280;49837;57.280;27.070;2023-01-31T00:56:21;97281.66;;;0.02;100.0
63691;BME280;49837;57.280;27.070;2023-01-31T00:57:19;97283.98;;;0.03;100.0
63691;BME280;49837;57.280;27.070;2023-01-31T00:58:20;97283.69;;;0.05;100.0
63691;BME280;49837;57.280;27.070;2023-01-31T00:59:20;97282.3;;;0.12;100.0
63691;BME280;49837;57.280;27.070;2023-01-31T01:00:20;97287.94;;;0.15;100.0
63691;BME280;49837;57.280;27.070;2023-01-31T01:01:23;97285.38;;;0.13;100.0
63691;BME280;49837;57.280;27.070;2023-01-31T01:02:22;97286.14;;;0.1;100.0
63691;BME280;49837;57.280;27.070;2023-01-31T01:03:22;97288.44;;;0.1;100.0
63691;BME280;49837;57.280;27.070;2023-01-31T01:04:22;97289.97;;;0.09;100.0
63691;BME280;49837;57.280;27.070;2023-01-31T01:05:23;97290.07;;;0.11;100.0
63691;BME280;49837;57.280;27.070;2023-01-31T01:06:23;97286.8;;;0.11;100.0
63691;BME280;49837;57.280;27.070;2023-01-31T01:07:24;97291.42;;;0.02;100.0
63691;BME280;49837;57.280;27.070;2023-01-31T01:08:24;97293.81;;;0.01;100.0
63691;BME280;49837;57.280;27.070;2023-01-31T01:09:24;97296.89;;;0.02;100.0
63691;BME280;49837;57.280;27.070;2023-01-31T01:10:24;97301.31;;;0.05;100.0
63691;BME280;49837;57.280;27.070;2023-01-31T01:11:28;97295.95;;;0.01;100.0
63691;BME280;49837;57.280;27.070;2023-01-31T01:12:27;97304.09;;;0.12;100.0
63691;BME280;49837;57.280;27.070;2023-01-31T01:13:27;97303.28;;;0.1;100.0
63691;BME280;49837;57.280;27.070;2023-01-31T01:14:27;97306.73;;;0.07;100.0
63691;BME280;49837;57.280;27.070;2023-01-31T01:15:28;97306.98;;;0.04;100.0
63691;BME280;49837;57.280;27.070;2023-01-31T01:16:33;97304.8;;;0.03;100.0
63691;BME280;49837;57.280;27.070;2023-01-31T01:17:33;97310.37;;;0.03;100.0
63691;BME280;49837;57.280;27.070;2023-01-31T01:18:34;97310.56;;;0.05;100.0
63691;BME280;49837;57.280;27.070;2023-01-31T01:19:34;97312.52;;;0.11;100.0
63691;BME280;49837;57.280;27.070;2023-01-31T01:20:34;97311.91;;;0.09;100.0
63691;BME280;49837;57.280;27.070;2023-01-31T01:21:35;97314.52;;;0.1;100.0
63691;BME280;49837;57.280;27.070;2023-01-31T01:22:35;97317.51;;;0.1;100.0
63691;BME280;49837;57.280;27.070;2023-01-31T01:23:36;97318.2;;;0.1;100.0
63691;BME280;49837;57.280;27.070;2023-01-31T01:24:35;97318.89;;;0.09;100.0
63691;BME280;49837;57.280;27.070;2023-01-31T01:25:43;97317.61;;;0.12;100.0
63691;BME280;49837;57.280;27.070;2023-01-31T01:26:36;97319.97;;;0.13;100.0
63691;BME280;49837;57.280;27.070;2023-01-31T01:27:36;97323.58;;;0.1;100.0
63691;BME280;49837;57.280;27.070;2023-01-31T01:28:36;97318.59;;;0.05;100.0
63691;BME280;49837;57.280;27.070;2023-01-31T01:29:37;97323.54;;;0.09;100.0
63691;BME280;49837;57.280;27.070;2023-01-31T01:30:38;97329.31;;;0.06;100.0
63691;BME280;49837;57.280;27.070;2023-01-31T01:31:39;97334.06;;;0.09;100.0
63691;BME280;49837;57.280;27.070;2023-01-31T01:32:38;97332.23;;;0.11;100.0
63691;BME280;49837;57.280;27.070;2023-01-31T01:33:38;97335.86;;;0.13;100.0
63691;BME280;49837;57.280;27.070;2023-01-31T01:34:39;97333.02;;;0.13;100.0
63691;BME280;49837;57.280;27.070;2023-01-31T01:35:39;97337.77;;;0.11;100.0
63691;BME280;49837;57.280;27.070;2023-01-31T01:36:39;97336.72;;;0.12;100.0
63691;BME280;49837;57.280;27.070;2023-01-31T01:37:40;97340.45;;;0.08;100.0
63691;BME280;49837;57.280;27.070;2023-01-31T01:38:40;97342.2;;;0.08;100.0
63691;BME280;49837;57.280;27.070;2023-01-31T01:39:40;97346.88;;;0.08;100.0
63691;BME280;49837;57.280;27.070;2023-01-31T01:40:41;97349.73;;;0.05;100.0
63691;BME280;49837;57.280;27.070;2023-01-31T01:41:41;97353.38;;;0.04;100.0
63691;BME280;49837;57.280;27.070;2023-01-31T01:42:41;97358.45;;;0.04;100.0
63691;BME280;49837;57.280;27.070;2023-01-31T01:43:53;97353.7;;;0.09;100.0
63691;BME280;49837;57.280;27.070;2023-01-31T01:44:50;97361.77;;;0.11;100.0
63691;BME280;49837;57.280;27.070;2023-01-31T01:45:48;97363.08;;;0.13;100.0
63691;BME280;49837;57.280;27.070;2023-01-31T01:46:49;97365.56;;;0.1;100.0
63691;BME280;49837;57.280;27.070;2023-01-31T01:47:54;97369.62;;;0.09;100.0
63691;BME280;49837;57.280;27.070;2023-01-31T01:51:03;97369.47;;;0.05;100.0
63691;BME280;49837;57.280;27.070;2023-01-31T01:52:05;97372.98;;;0.06;100.0
63691;BME280;49837;57.280;27.070;2023-01-31T01:53:18;97372.35;;;0.05;100.0
63691;BME280;49837;57.280;27.070;2023-01-31T01:54:11;97374.78;;;0.08;100.0
63691;BME280;49837;57.280;27.070;2023-01-31T01:55:24;97375.83;;;0.06;100.0
63691;BME280;49837;57.280;27.070;2023-01-31T01:56:19;97378.38;;;0.04;100.0
63691;BME280;49837;57.280;27.070;2023-01-31T01:57:23;97377.11;;;0.03;100.0
63691;BME280;49837;57.280;27.070;2023-01-31T01:58:23;97375.98;;;-0.01;100.0
63691;BME280;49837;57.280;27.070;2023-01-31T01:59:28;97383.59;;;0.02;100.0
63691;BME280;49837;57.280;27.070;2023-01-31T02:00:26;97378.7;;;0.04;100.0
63691;BME280;49837;57.280;27.070;2023-01-31T02:01:28;97386.77;;;0.02;100.0
63691;BME280;49837;57.280;27.070;2023-01-31T02:02:29;97379.95;;;0.06;100.0
63691;BME280;49837;57.280;27.070;2023-01-31T02:03:29;97390.15;;;0.04;100.0
63691;BME280;49837;57.280;27.070;2023-01-31T02:04:33;97390.22;;;0.07;100.0
63691;BME280;49837;57.280;27.070;2023-01-31T02:05:48;97386.25;;;0.06;100.0
63691;BME280;49837;57.280;27.070;2023-01-31T02:06:36;97386.39;;;0.09;100.0
63691;BME280;49837;57.280;27.070;2023-01-31T02:07:36;97392.78;;;0.09;100.0
63691;BME280;49837;57.280;27.070;2023-01-31T02:08:38;97399.86;;;0.09;100.0
63691;BME280;49837;57.280;27.070;2023-01-31T02:09:50;97399.53;;;0.08;100.0
63691;BME280;49837;57.280;27.070;2023-01-31T02:11:43;97402.09;;;0.09;100.0
63691;BME280;49837;57.280;27.070;2023-01-31T02:12:44;97400.88;;;0.08;100.0
63691;BME280;49837;57.280;27.070;2023-01-31T02:13:45;97409.79;;;0.08;100.0
63691;BME280;49837;57.280;27.070;2023-01-31T02:14:45;97415.19;;;0.03;100.0
63691;BME280;49837;57.280;27.070;2023-01-31T02:15:44;97424.8;;;0.02;100.0
63691;BME280;49837;57.280;27.070;2023-01-31T02:16:44;97425.14;;;-0.01;100.0
63691;BME280;49837;57.280;27.070;2023-01-31T02:17:45;97435.02;;;-0.03;100.0
63691;BME280;49837;57.280;27.070;2023-01-31T02:18:46;97442.76;;;-0.12;100.0
63691;BME280;49837;57.280;27.070;2023-01-31T02:33:25;97443.67;;;-0.49;100.0
63691;BME280;49837;57.280;27.070;2023-01-31T02:40:51;97457.38;;;-0.44;100.0
63691;BME280;49837;57.280;27.070;2023-01-31T02:46:12;97464.72;;;-0.4;100.0
63691;BME280;49837;57.280;27.070;2023-01-31T02:54:14;97477.38;;;-0.39;100.0
63691;BME280;49837;57.280;27.070;2023-01-31T02:57:17;97478.7;;;-0.42;100.0
63691;BME280;49837;57.280;27.070;2023-01-31T02:58:18;97483.91;;;-0.44;100.0
63691;BME280;49837;57.280;27.070;2023-01-31T02:59:22;97485.08;;;-0.45;100.0
63691;BME280;49837;57.280;27.070;2023-01-31T03:00:21;97494.06;;;-0.43;100.0
63691;BME280;49837;57.280;27.070;2023-01-31T03:01:25;97487.77;;;-0.44;100.0
63691;BME280;49837;57.280;27.070;2023-01-31T03:02:25;97488.84;;;-0.45;100.0
63691;BME280;49837;57.280;27.070;2023-01-31T03:03:27;97490.25;;;-0.45;100.0
63691;BME280;49837;57.280;27.070;2023-01-31T03:04:30;97491.86;;;-0.44;100.0
63691;BME280;49837;57.280;27.070;2023-01-31T03:05:28;97490.23;;;-0.42;100.0
63691;BME280;49837;57.280;27.070;2023-01-31T03:07:35;97495.78;;;-0.39;100.0
63691;BME280;49837;57.280;27.070;2023-01-31T03:08:35;97491.68;;;-0.41;100.0
63691;BME280;49837;57.280;27.070;2023-01-31T03:23:05;97512.88;;;-0.41;100.0
63691;BME280;49837;57.280;27.070;2023-01-31T03:24:05;97513.0;;;-0.42;100.0
63691;BME280;49837;57.280;27.070;2023-01-31T03:25:07;97511.96;;;-0.4;100.0
63691;BME280;49837;57.280;27.070;2023-01-31T03:26:07;97515.41;;;-0.38;100.0
63691;BME280;49837;57.280;27.070;2023-01-31T03:27:07;97517.44;;;-0.4;100.0
63691;BME280;49837;57.280;27.070;2023-01-31T03:28:13;97512.55;;;-0.46;100.0
63691;BME280;49837;57.280;27.070;2023-01-31T03:29:10;97515.73;;;-0.46;100.0
63691;BME280;49837;57.280;27.070;2023-01-31T03:31:26;97524.9;;;-0.4;100.0
63691;BME280;49837;57.280;27.070;2023-01-31T03:32:23;97526.99;;;-0.41;100.0
63691;BME280;49837;57.280;27.070;2023-01-31T03:34:18;97524.03;;;-0.44;100.0
63691;BME280;49837;57.280;27.070;2023-01-31T03:35:20;97530.08;;;-0.4;100.0
63691;BME280;49837;57.280;27.070;2023-01-31T03:38:34;97528.16;;;-0.43;100.0
63691;BME280;49837;57.280;27.070;2023-01-31T03:43:45;97535.86;;;-0.43;100.0
63691;BME280;49837;57.280;27.070;2023-01-31T03:45:46;97539.59;;;-0.44;100.0
63691;BME280;49837;57.280;27.070;2023-01-31T03:46:48;97542.23;;;-0.45;100.0
63691;BME280;49837;57.280;27.070;2023-01-31T03:47:49;97538.2;;;-0.45;100.0
63691;BME280;49837;57.280;27.070;2023-01-31T03:48:51;97541.69;;;-0.43;100.0
63691;BME280;49837;57.280;27.070;2023-01-31T03:49:51;97543.64;;;-0.45;100.0
63691;BME280;49837;57.280;27.070;2023-01-31T03:51:56;97548.92;;;-0.56;100.0
63691;BME280;49837;57.280;27.070;2023-01-31T03:53:09;97552.17;;;-0.55;100.0
63691;BME280;49837;57.280;27.070;2023-01-31T03:54:01;97557.98;;;-0.58;100.0
63691;BME280;49837;57.280;27.070;2023-01-31T03:55:09;97548.25;;;-0.59;100.0
63691;BME280;49837;57.280;27.070;2023-01-31T03:58:11;97552.25;;;-0.52;100.0
63691;BME280;49837;57.280;27.070;2023-01-31T03:59:14;97553.2;;;-0.54;100.0
63691;BME280;49837;57.280;27.070;2023-01-31T04:00:14;97551.73;;;-0.51;99.98
63691;BME280;49837;57.280;27.070;2023-01-31T04:01:14;97558.03;;;-0.5;99.5
63691;BME280;49837;57.280;27.070;2023-01-31T04:02:15;97559.77;;;-0.51;99.42
63691;BME280;49837;57.280;27.070;2023-01-31T04:03:19;97558.8;;;-0.52;99.32
63691;BME280;49837;57.280;27.070;2023-01-31T04:05:21;97565.35;;;-0.52;99.51
63691;BME280;49837;57.280;27.070;2023-01-31T04:06:20;97566.47;;;-0.57;99.86
63691;BME280;49837;57.280;27.070;2023-01-31T04:07:21;97566.45;;;-0.59;99.72
63691;BME280;49837;57.280;27.070;2023-01-31T04:08:21;97571.05;;;-0.57;99.82
63691;BME280;49837;57.280;27.070;2023-01-31T04:09:21;97570.83;;;-0.58;99.82
63691;BME280;49837;57.280;27.070;2023-01-31T04:10:22;97573.62;;;-0.55;99.96
63691;BME280;49837;57.280;27.070;2023-01-31T04:11:24;97574.6;;;-0.55;99.55
63691;BME280;49837;57.280;27.070;2023-01-31T04:12:23;97576.45;;;-0.59;99.61
63691;BME280;49837;57.280;27.070;2023-01-31T04:13:24;97575.05;;;-0.56;99.68
63691;BME280;49837;57.280;27.070;2023-01-31T04:14:24;97587.22;;;-0.59;99.86
63691;BME280;49837;57.280;27.070;2023-01-31T04:15:24;97586.47;;;-0.58;99.98
63691;BME280;49837;57.280;27.070;2023-01-31T04:16:24;97590.38;;;-0.57;100.0
63691;BME280;49837;57.280;27.070;2023-01-31T04:17:25;97592.91;;;-0.61;99.86
63691;BME280;49837;57.280;27.070;2023-01-31T04:18:25;97593.81;;;-0.57;99.69
63691;BME280;49837;57.280;27.070;2023-01-31T04:19:25;97597.77;;;-0.58;99.69
63691;BME280;49837;57.280;27.070;2023-01-31T04:20:26;97593.22;;;-0.62;99.75
63691;BME280;49837;57.280;27.070;2023-01-31T04:21:26;97600.46;;;-0.57;99.97
63691;BME280;49837;57.280;27.070;2023-01-31T04:22:27;97595.04;;;-0.61;99.77
63691;BME280;49837;57.280;27.070;2023-01-31T04:23:27;97597.95;;;-0.61;99.51
63691;BME280;49837;57.280;27.070;2023-01-31T04:24:27;97597.5;;;-0.63;99.75
63691;BME280;49837;57.280;27.070;2023-01-31T04:25:27;97597.66;;;-0.6;99.8
63691;BME280;49837;57.280;27.070;2023-01-31T04:26:28;97599.62;;;-0.61;99.6
63691;BME280;49837;57.280;27.070;2023-01-31T04:27:29;97600.66;;;-0.62;99.08
63691;BME280;49837;57.280;27.070;2023-01-31T04:28:29;97594.29;;;-0.6;98.63
63691;BME280;49837;57.280;27.070;2023-01-31T04:29:29;97593.2;;;-0.55;98.32
63691;BME280;49837;57.280;27.070;2023-01-31T04:30:30;97596.89;;;-0.53;98.39
63691;BME280;49837;57.280;27.070;2023-01-31T04:31:30;97607.61;;;-0.52;98.29
63691;BME280;49837;57.280;27.070;2023-01-31T04:32:31;97593.99;;;-0.55;97.82
63691;BME280;49837;57.280;27.070;2023-01-31T04:33:31;97605.34;;;-0.56;97.64
63691;BME280;49837;57.280;27.070;2023-01-31T04:34:31;97606.7;;;-0.55;97.75
63691;BME280;49837;57.280;27.070;2023-01-31T04:35:32;97606.33;;;-0.56;98.29
63691;BME280;49837;57.280;27.070;2023-01-31T04:36:32;97618.37;;;-0.63;98.42
63691;BME280;49837;57.280;27.070;2023-01-31T04:37:32;97609.39;;;-0.68;98.32
63691;BME280;49837;57.280;27.070;2023-01-31T04:38:32;97619.7;;;-0.68;98.6
63691;BME280;49837;57.280;27.070;2023-01-31T04:39:33;97625.67;;;-0.67;98.58
63691;BME280;49837;57.280;27.070;2023-01-31T04:40:33;97629.58;;;-0.66;99.14
63691;BME280;49837;57.280;27.070;2023-01-31T04:41:34;97629.16;;;-0.73;99.73
63691;BME280;49837;57.280;27.070;2023-01-31T04:42:34;97628.11;;;-0.83;100.0
63691;BME280;49837;57.280;27.070;2023-01-31T04:43:34;97632.45;;;-0.93;100.0
63691;BME280;49837;57.280;27.070;2023-01-31T04:44:35;97629.56;;;-0.97;100.0
63691;BME280;49837;57.280;27.070;2023-01-31T04:45:35;97635.3;;;-1.0;100.0
63691;BME280;49837;57.280;27.070;2023-01-31T04:46:35;97641.36;;;-1.1;100.0
63691;BME280;49837;57.280;27.070;2023-01-31T04:47:36;97635.61;;;-1.06;100.0
63691;BME280;49837;57.280;27.070;2023-01-31T04:48:36;97650.36;;;-1.1;100.0
63691;BME280;49837;57.280;27.070;2023-01-31T04:49:36;97640.87;;;-1.07;100.0
63691;BME280;49837;57.280;27.070;2023-01-31T04:50:37;97638.41;;;-1.07;100.0
63691;BME280;49837;57.280;27.070;2023-01-31T04:51:37;97649.91;;;-0.98;100.0
63691;BME280;49837;57.280;27.070;2023-01-31T04:52:37;97644.58;;;-0.97;100.0
63691;BME280;49837;57.280;27.070;2023-01-31T04:53:38;97643.08;;;-0.96;100.0
63691;BME280;49837;57.280;27.070;2023-01-31T04:54:38;97644.88;;;-0.93;100.0
63691;BME280;49837;57.280;27.070;2023-01-31T04:55:38;97647.7;;;-0.92;100.0
63691;BME280;49837;57.280;27.070;2023-01-31T04:56:39;97651.45;;;-0.87;100.0
63691;BME280;49837;57.280;27.070;2023-01-31T04:57:39;97661.01;;;-0.86;100.0
63691;BME280;49837;57.280;27.070;2023-01-31T04:58:39;97656.71;;;-0.88;100.0
63691;BME280;49837;57.280;27.070;2023-01-31T04:59:40;97655.58;;;-0.86;100.0
63691;BME280;49837;57.280;27.070;2023-01-31T05:00:40;97661.61;;;-0.85;100.0
63691;BME280;49837;57.280;27.070;2023-01-31T05:01:40;97664.09;;;-0.85;100.0
63691;BME280;49837;57.280;27.070;2023-01-31T05:02:41;97662.36;;;-0.85;100.0
63691;BME280;49837;57.280;27.070;2023-01-31T05:03:41;97666.16;;;-0.82;100.0
63691;BME280;49837;57.280;27.070;2023-01-31T05:04:41;97668.75;;;-0.81;100.0
63691;BME280;49837;57.280;27.070;2023-01-31T05:05:42;97668.48;;;-0.85;100.0
63691;BME280;49837;57.280;27.070;2023-01-31T05:06:42;97670.5;;;-0.86;100.0
63691;BME280;49837;57.280;27.070;2023-01-31T05:07:43;97673.69;;;-0.89;100.0
63691;BME280;49837;57.280;27.070;2023-01-31T05:08:43;97672.88;;;-0.87;100.0
63691;BME280;49837;57.280;27.070;2023-01-31T05:09:43;97672.38;;;-0.9;100.0
63691;BME280;49837;57.280;27.070;2023-01-31T05:10:43;97677.09;;;-0.88;100.0
63691;BME280;49837;57.280;27.070;2023-01-31T05:11:44;97676.33;;;-0.87;100.0
63691;BME280;49837;57.280;27.070;2023-01-31T05:12:45;97680.12;;;-0.82;100.0
63691;BME280;49837;57.280;27.070;2023-01-31T05:13:45;97684.36;;;-0.77;100.0
63691;BME280;49837;57.280;27.070;2023-01-31T05:14:45;97680.39;;;-0.78;99.96
63691;BME280;49837;57.280;27.070;2023-01-31T05:15:47;97684.48;;;-0.76;99.55
63691;BME280;49837;57.280;27.070;2023-01-31T05:16:46;97678.7;;;-0.73;98.87
63691;BME280;49837;57.280;27.070;2023-01-31T05:17:54;97696.98;;;-0.78;97.46
63691;BME280;49837;57.280;27.070;2023-01-31T05:18:48;97687.77;;;-0.73;95.86
63691;BME280;49837;57.280;27.070;2023-01-31T05:19:48;97687.0;;;-0.71;94.87
63691;BME280;49837;57.280;27.070;2023-01-31T05:20:48;97690.86;;;-0.68;94.26
63691;BME280;49837;57.280;27.070;2023-01-31T05:21:48;97693.88;;;-0.68;94.34
63691;BME280;49837;57.280;27.070;2023-01-31T05:22:49;97695.45;;;-0.72;94.16
63691;BME280;49837;57.280;27.070;2023-01-31T05:23:49;97703.09;;;-0.73;94.52
63691;BME280;49837;57.280;27.070;2023-01-31T05:24:50;97706.69;;;-0.73;94.91
63691;BME280;49837;57.280;27.070;2023-01-31T05:25:50;97710.13;;;-0.8;95.07
63691;BME280;49837;57.280;27.070;2023-01-31T05:26:50;97713.86;;;-0.82;95.51
63691;BME280;49837;57.280;27.070;2023-01-31T05:27:51;97714.81;;;-0.81;95.75
63691;BME280;49837;57.280;27.070;2023-01-31T05:28:51;97714.2;;;-0.8;96.08
63691;BME280;49837;57.280;27.070;2023-01-31T05:29:51;97718.1;;;-0.75;96.39
63691;BME280;49837;57.280;27.070;2023-01-31T05:30:52;97715.6;;;-0.77;96.8
63691;BME280;49837;57.280;27.070;2023-01-31T05:31:53;97719.84;;;-0.79;96.78
63691;BME280;49837;57.280;27.070;2023-01-31T05:32:52;97725.0;;;-0.83;96.61
63691;BME280;49837;57.280;27.070;2023-01-31T05:33:53;97726.14;;;-0.87;96.88
63691;BME280;49837;57.280;27.070;2023-01-31T05:34:53;97727.16;;;-0.84;96.7
63691;BME280;49837;57.280;27.070;2023-01-31T05:35:53;97725.33;;;-0.83;96.16
63691;BME280;49837;57.280;27.070;2023-01-31T05:36:54;97728.65;;;-0.85;96.33
63691;BME280;49837;57.280;27.070;2023-01-31T05:37:54;97731.92;;;-0.82;96.22
63691;BME280;49837;57.280;27.070;2023-01-31T05:38:54;97729.89;;;-0.86;96.35
63691;BME280;49837;57.280;27.070;2023-01-31T05:39:55;97735.97;;;-0.86;96.39
63691;BME280;49837;57.280;27.070;2023-01-31T05:40:55;97737.58;;;-0.86;95.86
63691;BME280;49837;57.280;27.070;2023-01-31T05:41:55;97743.47;;;-0.86;95.75
63691;BME280;49837;57.280;27.070;2023-01-31T05:42:56;97744.06;;;-0.86;95.95
63691;BME280;49837;57.280;27.070;2023-01-31T05:43:56;97748.62;;;-0.85;95.4
63691;BME280;49837;57.280;27.070;2023-01-31T05:44:57;97757.88;;;-0.82;94.84
63691;BME280;49837;57.280;27.070;2023-01-31T05:45:57;97747.2;;;-0.79;94.43
63691;BME280;49837;57.280;27.070;2023-01-31T05:46:57;97741.75;;;-0.81;94.35
63691;BME280;49837;57.280;27.070;2023-01-31T05:47:58;97746.56;;;-0.84;94.35
63691;BME280;49837;57.280;27.070;2023-01-31T05:48:58;97750.19;;;-0.82;94.34
63691;BME280;49837;57.280;27.070;2023-01-31T05:49:58;97746.03;;;-0.79;94.35
63691;BME280;49837;57.280;27.070;2023-01-31T05:50:58;97749.67;;;-0.81;94.39
63691;BME280;49837;57.280;27.070;2023-01-31T05:51:59;97755.23;;;-0.84;94.39
63691;BME280;49837;57.280;27.070;2023-01-31T05:52:59;97750.8;;;-0.8;94.2
63691;BME280;49837;57.280;27.070;2023-01-31T05:53:59;97755.23;;;-0.74;93.93
63691;BME280;49837;57.280;27.070;2023-01-31T05:55:00;97760.53;;;-0.76;93.88
63691;BME280;49837;57.280;27.070;2023-01-31T05:56:00;97758.0;;;-0.83;93.93
63691;BME280;49837;57.280;27.070;2023-01-31T05:57:00;97762.42;;;-0.79;93.41
63691;BME280;49837;57.280;27.070;2023-01-31T05:58:01;97762.96;;;-0.75;93.31
63691;BME280;49837;57.280;27.070;2023-01-31T05:59:01;97766.56;;;-0.71;92.14
63691;BME280;49837;57.280;27.070;2023-01-31T06:00:02;97760.64;;;-0.7;91.69
63691;BME280;49837;57.280;27.070;2023-01-31T06:01:02;97773.3;;;-0.69;91.06
63691;BME280;49837;57.280;27.070;2023-01-31T06:02:02;97774.94;;;-0.69;91.05
63691;BME280;49837;57.280;27.070;2023-01-31T06:03:02;97776.53;;;-0.7;91.4
63691;BME280;49837;57.280;27.070;2023-01-31T06:04:03;97783.36;;;-0.68;90.73
63691;BME280;49837;57.280;27.070;2023-01-31T06:05:03;97778.91;;;-0.64;90.19
63691;BME280;49837;57.280;27.070;2023-01-31T06:06:04;97784.34;;;-0.64;90.54
63691;BME280;49837;57.280;27.070;2023-01-31T06:07:04;97782.11;;;-0.71;90.92
63691;BME280;49837;57.280;27.070;2023-01-31T06:08:04;97779.4;;;-0.71;91.02
63691;BME280;49837;57.280;27.070;2023-01-31T06:09:04;97777.02;;;-0.7;90.28
63691;BME280;49837;57.280;27.070;2023-01-31T06:10:06;97791.27;;;-0.67;89.74
63691;BME280;49837;57.280;27.070;2023-01-31T06:11:05;97787.8;;;-0.66;90.11
63691;BME280;49837;57.280;27.070;2023-01-31T06:12:06;97783.17;;;-0.67;90.67
63691;BME280;49837;57.280;27.070;2023-01-31T06:13:08;97791.0;;;-0.7;90.96
63691;BME280;49837;57.280;27.070;2023-01-31T06:14:09;97792.53;;;-0.64;90.08
63691;BME280;49837;57.280;27.070;2023-01-31T06:15:10;97799.41;;;-0.68;90.12
63691;BME280;49837;57.280;27.070;2023-01-31T06:16:10;97792.77;;;-0.64;89.46
63691;BME280;49837;57.280;27.070;2023-01-31T06:17:10;97808.95;;;-0.53;87.54
63691;BME280;49837;57.280;27.070;2023-01-31T06:18:11;97793.54;;;-0.52;87.42
63691;BME280;49837;57.280;27.070;2023-01-31T06:19:10;97792.81;;;-0.56;87.81
63691;BME280;49837;57.280;27.070;2023-01-31T06:20:11;97797.91;;;-0.53;88.26
63691;BME280;49837;57.280;27.070;2023-01-31T06:21:11;97800.58;;;-0.59;89.01
63691;BME280;49837;57.280;27.070;2023-01-31T06:22:11;97799.66;;;-0.62;89.49
63691;BME280;49837;57.280;27.070;2023-01-31T06:23:12;97806.72;;;-0.7;89.97
63691;BME280;49837;57.280;27.070;2023-01-31T06:24:12;97808.52;;;-0.7;90.68
63691;BME280;49837;57.280;27.070;2023-01-31T06:25:12;97815.06;;;-0.76;91.57
63691;BME280;49837;57.280;27.070;2023-01-31T06:26:13;97818.14;;;-0.82;92.42